Time;durP1;ratioP1;P1;durP2;ratioP2;P2;SDS_P1;SDS_P2;PMS_P1;PMS_P2;Temp;Humidity;BMP_temperature;BMP_pressure;BME280_temperature;BME280_humidity;BME280_pressure;Samples;Min_cycle;Max_cycle;Signal;HPM_P1;HPM_P2
2021/12/21 00:00:31;;;;;;;3.15;2.90;;;18.90;26.80;;;;;;5111649;28;20199;-63
2021/12/21 00:02:58;;;;;;;3.15;2.90;;;18.90;26.80;;;;;;5096847;28;20495;-63
2021/12/21 00:05:28;;;;;;;2.88;2.67;;;18.90;26.80;;;;;;5097244;28;20211;-63
2021/12/21 00:07:57;;;;;;;3.28;3.03;;;18.90;26.80;;;;;;5097297;28;20235;-63
2021/12/21 00:10:29;;;;;;;3.25;2.80;;;18.90;26.80;;;;;;5100195;28;20607;-63
2021/12/21 00:13:07;;;;;;;3.17;2.90;;;18.90;26.80;;;;;;5100721;28;20206;-63
2021/12/21 00:15:50;;;;;;;2.80;2.60;;;18.90;26.80;;;;;;5100783;28;20253;-64
2021/12/21 00:18:27;;;;;;;2.90;2.70;;;18.90;26.70;;;;;;5100583;28;20239;-63
2021/12/21 00:21:02;;;;;;;3.30;3.00;;;18.90;26.80;;;;;;5100562;28;20298;-64
2021/12/21 00:23:32;;;;;;;2.67;2.47;;;18.90;26.90;;;;;;5099441;28;20210;-63
2021/12/21 00:26:01;;;;;;;2.50;2.30;;;18.90;26.80;;;;;;5115338;28;20203;-63
2021/12/21 00:28:34;;;;;;;2.65;2.45;;;18.90;26.80;;;;;;5120694;28;20203;-63
2021/12/21 00:31:02;;;;;;;2.95;2.70;;;18.80;26.70;;;;;;5120680;28;20301;-63
2021/12/21 00:33:30;;;;;;;2.55;2.30;;;18.80;26.70;;;;;;5120793;28;20491;-64
2021/12/21 00:35:57;;;;;;;2.80;2.58;;;18.80;26.60;;;;;;5120269;28;20203;-63
2021/12/21 00:38:25;;;;;;;3.47;2.50;;;18.80;26.70;;;;;;5119753;28;20214;-63
2021/12/21 00:40:52;;;;;;;2.83;2.63;;;18.80;26.70;;;;;;5099112;28;20494;-63
2021/12/21 00:43:19;;;;;;;2.80;2.50;;;18.80;26.70;;;;;;5099408;28;20226;-63
2021/12/21 00:45:47;;;;;;;3.17;2.88;;;18.80;26.80;;;;;;5099936;28;20214;-62
2021/12/21 00:48:18;;;;;;;6.50;5.90;;;18.80;26.70;;;;;;5099965;28;20310;-62
2021/12/21 00:50:45;;;;;;;5.47;4.97;;;18.80;26.50;;;;;;5099553;28;20609;-63
2021/12/21 00:53:13;;;;;;;5.07;4.68;;;18.70;26.40;;;;;;5113806;28;20221;-63
2021/12/21 00:55:40;;;;;;;5.35;4.85;;;18.70;26.40;;;;;;5120199;28;20230;-63
2021/12/21 00:58:07;;;;;;;5.00;4.60;;;18.70;26.30;;;;;;5120479;28;20198;-63
2021/12/21 01:00:35;;;;;;;4.90;4.25;;;18.60;26.20;;;;;;5119742;28;20214;-63
2021/12/21 01:03:08;;;;;;;4.43;4.03;;;18.60;26.20;;;;;;5119979;28;20203;-63
2021/12/21 01:05:44;;;;;;;4.72;4.32;;;18.60;26.20;;;;;;5120337;28;20592;-64
2021/12/21 01:08:16;;;;;;;4.43;4.03;;;18.60;26.30;;;;;;5119840;28;20238;-64
2021/12/21 01:11:03;;;;;;;5.03;4.63;;;18.60;26.20;;;;;;5119628;28;20206;-63
2021/12/21 01:13:36;;;;;;;4.38;3.97;;;18.50;26.20;;;;;;5119783;28;20218;-63
2021/12/21 01:16:20;;;;;;;4.13;3.70;;;18.50;26.20;;;;;;5119599;28;20248;-63
2021/12/21 01:19:03;;;;;;;4.10;3.70;;;18.40;26.20;;;;;;5119931;28;20202;-64
2021/12/21 01:21:36;;;;;;;4.03;3.63;;;18.50;26.20;;;;;;5100418;28;20202;-64
2021/12/21 01:26:58;;;;;;;3.80;3.50;;;18.40;26.10;;;;;;5119923;28;20318;-63
2021/12/21 01:29:33;;;;;;;3.35;3.05;;;18.40;26.20;;;;;;5118625;28;20199;-64
2021/12/21 01:32:07;;;;;;;3.63;3.33;;;18.30;26.10;;;;;;5119550;28;20752;-64
2021/12/21 01:34:44;;;;;;;3.80;3.50;;;18.30;26.10;;;;;;5119385;28;20214;-64
2021/12/21 01:37:20;;;;;;;3.80;3.50;;;18.30;26.10;;;;;;5118963;28;20202;-64
2021/12/21 01:40:08;;;;;;;3.40;3.10;;;18.30;26.10;;;;;;5119568;28;20210;-64
2021/12/21 01:42:51;;;;;;;3.53;3.22;;;18.30;26.10;;;;;;5119050;28;20639;-64
2021/12/21 01:50:51;;;;;;;3.30;3.00;;;18.20;26.10;;;;;;5119033;28;20608;-63
2021/12/21 01:53:20;;;;;;;3.40;3.10;;;18.20;26.10;;;;;;5118671;28;20203;-63
2021/12/21 01:55:48;;;;;;;3.05;2.85;;;18.10;26.10;;;;;;5119220;28;20242;-64
2021/12/21 01:58:15;;;;;;;3.00;2.70;;;18.10;26.10;;;;;;5118573;28;20203;-64
2021/12/21 02:00:43;;;;;;;3.17;2.88;;;18.10;26.10;;;;;;5118942;28;20207;-63
2021/12/21 02:03:10;;;;;;;2.90;2.70;;;18.10;26.10;;;;;;5117585;28;20219;-63
2021/12/21 02:05:38;;;;;;;3.55;2.88;;;18.10;26.10;;;;;;5117981;28;20230;-63
2021/12/21 02:08:06;;;;;;;2.97;2.78;;;18.00;26.10;;;;;;5116766;28;20234;-64
2021/12/21 02:10:35;;;;;;;3.40;3.10;;;18.00;26.00;;;;;;5117439;28;20203;-64
2021/12/21 02:13:03;;;;;;;3.13;2.83;;;18.00;26.00;;;;;;5116944;28;20624;-63
2021/12/21 02:15:31;;;;;;;3.42;3.13;;;18.00;26.10;;;;;;5117131;28;20203;-63
2021/12/21 02:20:47;;;;;;;3.53;3.00;;;17.90;26.00;;;;;;5116688;28;20435;-64
2021/12/21 02:23:16;;;;;;;2.80;2.60;;;18.00;26.10;;;;;;5117569;28;20255;-64
2021/12/21 02:28:47;;;;;;;2.90;2.60;;;17.90;26.00;;;;;;5099204;28;20238;-63
2021/12/21 02:31:16;;;;;;;2.88;2.67;;;17.90;26.00;;;;;;5116716;28;20214;-63
2021/12/21 02:33:47;;;;;;;2.58;2.38;;;17.90;26.10;;;;;;5115824;28;20206;-63
2021/12/21 02:36:16;;;;;;;2.80;2.60;;;17.90;26.00;;;;;;5088434;28;20222;-63
2021/12/21 02:38:43;;;;;;;2.90;2.70;;;17.90;26.10;;;;;;5107898;27;20203;-63
2021/12/21 02:41:10;;;;;;;3.03;2.80;;;17.90;26.10;;;;;;5130357;27;20203;-64
2021/12/21 02:43:38;;;;;;;3.05;2.58;;;17.80;26.10;;;;;;5116221;28;20207;-63
2021/12/21 02:46:06;;;;;;;2.70;2.50;;;17.80;26.10;;;;;;5116808;28;20206;-63
2021/12/21 02:48:33;;;;;;;2.47;2.28;;;17.80;26.10;;;;;;5117411;27;20313;-63
2021/12/21 02:51:01;;;;;;;2.65;2.45;;;17.80;26.10;;;;;;5120813;27;20590;-63
2021/12/21 02:53:30;;;;;;;2.72;2.53;;;17.70;26.00;;;;;;5116050;28;20214;-63
2021/12/21 02:55:57;;;;;;;3.03;2.75;;;17.70;26.00;;;;;;5115788;28;20234;-63
2021/12/21 02:58:24;;;;;;;2.85;2.60;;;17.70;26.00;;;;;;5120698;27;20233;-64
2021/12/21 03:00:53;;;;;;;2.80;2.60;;;17.70;26.00;;;;;;5115702;28;20207;-64
2021/12/21 03:03:20;;;;;;;2.35;2.15;;;17.70;26.10;;;;;;5115202;28;20218;-63
2021/12/21 03:05:51;;;;;;;2.80;2.60;;;17.70;26.10;;;;;;5115451;28;20207;-64
2021/12/21 03:08:22;;;;;;;2.63;2.42;;;17.70;26.10;;;;;;5117929;27;20230;-63
2021/12/21 03:11:07;;;;;;;2.50;2.30;;;17.70;26.10;;;;;;5117959;27;20273;-64
2021/12/21 03:14:03;;;;;;;2.42;2.22;;;17.70;26.10;;;;;;5115729;28;20557;-63
2021/12/21 03:16:32;;;;;;;3.20;2.30;;;17.60;26.00;;;;;;5115486;28;20621;-63
2021/12/21 03:18:59;;;;;;;2.80;2.60;;;17.60;26.10;;;;;;5115427;28;20323;-63
2021/12/21 03:21:29;;;;;;;2.50;2.30;;;17.60;26.10;;;;;;5121410;27;20230;-63
2021/12/21 03:23:56;;;;;;;2.55;2.35;;;17.60;26.10;;;;;;5115717;28;20709;-63
2021/12/21 03:26:25;;;;;;;2.30;2.10;;;17.60;26.10;;;;;;5115112;28;20594;-63
2021/12/21 03:28:53;;;;;;;2.47;2.28;;;17.60;26.10;;;;;;5115297;28;20277;-63
2021/12/21 03:31:20;;;;;;;2.65;2.10;;;17.60;26.10;;;;;;5114417;28;20203;-63
2021/12/21 03:33:48;;;;;;;2.67;2.47;;;17.50;26.10;;;;;;5115331;28;20214;-63
2021/12/21 03:36:16;;;;;;;2.50;2.30;;;17.60;26.10;;;;;;5114585;28;20585;-63
2021/12/21 03:38:48;;;;;;;2.33;2.13;;;17.50;26.10;;;;;;5115516;28;20234;-63
2021/12/21 03:41:17;;;;;;;2.40;2.20;;;17.50;26.10;;;;;;5109261;28;20261;-64
2021/12/21 03:43:46;;;;;;;2.47;2.10;;;17.50;26.10;;;;;;5127821;27;20271;-63
2021/12/21 03:46:15;;;;;;;2.50;2.30;;;17.50;26.20;;;;;;5119808;28;20210;-63
2021/12/21 03:48:45;;;;;;;2.50;2.30;;;17.50;26.10;;;;;;5119856;28;20321;-63
2021/12/21 03:51:13;;;;;;;2.10;1.90;;;17.40;26.10;;;;;;5119590;28;20211;-63
2021/12/21 03:53:41;;;;;;;2.50;2.30;;;17.50;26.20;;;;;;5119625;28;20594;-63
2021/12/21 03:58:52;;;;;;;2.30;2.00;;;17.50;26.20;;;;;;5110561;28;20203;-64
2021/12/21 04:01:19;;;;;;;2.30;2.10;;;17.40;26.00;;;;;;5119222;28;20207;-63
2021/12/21 04:03:46;;;;;;;2.20;2.00;;;17.40;26.10;;;;;;5119660;28;20733;-62
2021/12/21 04:06:13;;;;;;;2.70;2.10;;;17.40;26.10;;;;;;5119345;28;20211;-62
2021/12/21 04:08:41;;;;;;;2.45;2.25;;;17.40;26.10;;;;;;5119004;28;20223;-62
2021/12/21 04:11:08;;;;;;;2.13;1.92;;;17.40;26.10;;;;;;5119192;28;20207;-62
2021/12/21 04:13:35;;;;;;;2.30;2.10;;;17.40;26.10;;;;;;5118913;28;20503;-63
2021/12/21 04:16:05;;;;;;;2.22;2.03;;;17.40;26.10;;;;;;5119215;28;20217;-62
2021/12/21 04:18:35;;;;;;;2.20;2.00;;;17.40;26.10;;;;;;5118785;28;20242;-63
2021/12/21 04:21:03;;;;;;;2.53;2.13;;;17.40;26.10;;;;;;5119380;28;20236;-62
2021/12/21 04:23:30;;;;;;;2.38;2.08;;;17.30;26.10;;;;;;5118242;28;20207;-63
2021/12/21 04:25:58;;;;;;;2.28;2.08;;;17.30;26.10;;;;;;5119903;28;20611;-62
2021/12/21 04:28:25;;;;;;;2.17;2.08;;;17.30;26.10;;;;;;5117726;27;20241;-63
2021/12/21 04:30:53;;;;;;;2.10;1.90;;;17.30;26.10;;;;;;5124228;27;20570;-63
2021/12/21 04:33:21;;;;;;;2.28;2.08;;;17.30;26.10;;;;;;5118848;28;20698;-62
2021/12/21 04:35:49;;;;;;;2.17;1.98;;;17.30;26.10;;;;;;5118562;28;20218;-64
2021/12/21 04:38:21;;;;;;;1.80;1.70;;;17.30;26.10;;;;;;5117552;28;20199;-64
2021/12/21 04:40:53;;;;;;;2.13;1.92;;;17.30;26.10;;;;;;5118555;28;20235;-63
2021/12/21 04:43:20;;;;;;;2.22;2.03;;;17.20;26.00;;;;;;5118007;28;20203;-62
2021/12/21 04:45:48;;;;;;;2.30;2.10;;;17.20;26.00;;;;;;5118330;28;20218;-63
2021/12/21 04:48:15;;;;;;;1.98;1.88;;;17.20;26.10;;;;;;5117689;28;20226;-62
2021/12/21 04:50:44;;;;;;;2.47;1.92;;;17.20;26.60;;;;;;5118303;28;20211;-63
2021/12/21 04:53:11;;;;;;;2.10;1.90;;;17.20;26.10;;;;;;5118004;28;20206;-63
2021/12/21 04:55:39;;;;;;;2.10;1.92;;;17.20;26.10;;;;;;5117454;28;20223;-63
2021/12/21 04:58:06;;;;;;;1.90;1.70;;;17.20;26.00;;;;;;5117122;28;20223;-62
2021/12/21 05:00:35;;;;;;;1.90;1.70;;;17.10;26.00;;;;;;5118007;28;20215;-62
2021/12/21 05:03:02;;;;;;;2.20;2.00;;;17.10;26.00;;;;;;5117719;28;20744;-63
2021/12/21 05:05:29;;;;;;;1.95;1.75;;;17.10;26.00;;;;;;5117506;28;20213;-63
2021/12/21 05:08:08;;;;;;;2.15;1.95;;;17.10;26.10;;;;;;5118265;28;20223;-62
2021/12/21 05:10:37;;;;;;;2.17;1.83;;;17.10;26.10;;;;;;5117871;28;20207;-63
2021/12/21 05:13:04;;;;;;;2.20;2.00;;;17.10;26.10;;;;;;5117463;28;20238;-63
2021/12/21 05:15:31;;;;;;;1.95;1.75;;;17.10;26.10;;;;;;5117313;28;20214;-62
2021/12/21 05:17:58;;;;;;;2.22;2.03;;;17.10;26.10;;;;;;5117785;28;20802;-62
2021/12/21 05:20:25;;;;;;;2.00;1.83;;;17.10;26.00;;;;;;5117298;28;20281;-63
2021/12/21 05:22:52;;;;;;;2.13;1.92;;;17.10;26.00;;;;;;5108568;27;20199;-62
2021/12/21 05:25:22;;;;;;;2.25;2.05;;;17.10;26.10;;;;;;5132207;27;20218;-62
2021/12/21 05:27:49;;;;;;;2.00;1.80;;;17.10;26.10;;;;;;5116954;28;20215;-62
2021/12/21 05:30:16;;;;;;;2.15;1.95;;;17.10;26.00;;;;;;5117501;28;20215;-62
2021/12/21 05:32:44;;;;;;;2.22;2.03;;;17.10;26.70;;;;;;5116821;28;20225;-62
2021/12/21 05:35:11;;;;;;;1.88;1.77;;;17.10;26.10;;;;;;5117224;28;20223;-62
2021/12/21 05:37:40;;;;;;;2.20;2.00;;;17.00;26.00;;;;;;5117221;28;20495;-63
2021/12/21 05:40:13;;;;;;;2.08;1.88;;;17.00;26.00;;;;;;5116694;28;20313;-64
2021/12/21 05:42:43;;;;;;;2.35;2.05;;;17.00;26.10;;;;;;5116599;28;20211;-64
2021/12/21 05:45:12;;;;;;;2.03;1.83;;;17.00;26.00;;;;;;5116951;28;20203;-62
2021/12/21 05:47:39;;;;;;;2.30;2.10;;;17.00;26.10;;;;;;5116511;28;20296;-63
2021/12/21 05:50:11;;;;;;;2.13;1.95;;;17.00;26.00;;;;;;5116480;28;20211;-63
2021/12/21 05:52:38;;;;;;;2.05;1.88;;;17.00;26.00;;;;;;5116085;28;20257;-64
2021/12/21 05:55:06;;;;;;;2.03;1.83;;;17.00;26.10;;;;;;5116535;28;20207;-64
2021/12/21 05:57:33;;;;;;;2.00;1.80;;;17.00;26.10;;;;;;5115699;28;20241;-63
2021/12/21 06:00:02;;;;;;;2.00;1.80;;;17.00;26.00;;;;;;5115973;28;20637;-63
2021/12/21 06:02:29;;;;;;;2.20;1.98;;;17.00;26.10;;;;;;5115287;28;20202;-62
2021/12/21 06:04:56;;;;;;;2.20;1.90;;;17.00;26.10;;;;;;5115798;28;20222;-62
2021/12/21 06:07:23;;;;;;;2.20;2.00;;;16.90;26.00;;;;;;5115837;28;20231;-62
2021/12/21 06:09:50;;;;;;;2.20;2.00;;;16.90;26.00;;;;;;5115602;28;20223;-62
2021/12/21 06:12:32;;;;;;;2.13;1.92;;;16.90;26.10;;;;;;5115028;28;20492;-63
2021/12/21 06:15:23;;;;;;;2.10;1.90;;;16.90;26.00;;;;;;5114933;28;20231;-62
2021/12/21 06:26:12;;;;;;;2.20;1.85;;;16.90;26.00;;;;;;5075121;28;20546;-63
2021/12/21 06:28:41;;;;;;;2.28;2.00;;;16.90;26.00;;;;;;5114277;28;20631;-63
2021/12/21 06:31:10;;;;;;;2.38;1.90;;;16.80;26.00;;;;;;5114906;28;20529;-63
2021/12/21 06:33:38;;;;;;;2.05;1.80;;;16.80;25.90;;;;;;5114255;28;20230;-63
2021/12/21 06:36:07;;;;;;;2.08;1.98;;;16.80;26.00;;;;;;5114294;28;20207;-63
2021/12/21 06:38:34;;;;;;;2.15;1.95;;;16.80;26.00;;;;;;5115210;28;20195;-63
2021/12/21 06:41:02;;;;;;;2.38;2.05;;;16.80;26.00;;;;;;5114955;28;20206;-63
2021/12/21 06:43:30;;;;;;;2.53;2.03;;;16.80;26.00;;;;;;5115003;28;20203;-63
2021/12/21 06:46:04;;;;;;;2.35;2.15;;;16.80;26.00;;;;;;5114538;28;20620;-63
2021/12/21 06:51:22;;;;;;;2.13;1.92;;;16.80;26.00;;;;;;5114827;28;20762;-62
2021/12/21 06:53:52;;;;;;;2.28;2.08;;;16.80;26.70;;;;;;5114753;28;20209;-62
2021/12/21 06:56:20;;;;;;;2.28;1.98;;;16.80;26.00;;;;;;5113078;28;20239;-62
2021/12/21 06:58:48;;;;;;;2.28;1.92;;;16.70;26.10;;;;;;5114729;28;20199;-63
2021/12/21 07:01:16;;;;;;;2.13;1.92;;;16.70;26.00;;;;;;5114513;28;20214;-63
2021/12/21 07:03:45;;;;;;;2.42;2.13;;;16.70;26.00;;;;;;5114809;28;20215;-63
2021/12/21 07:06:12;;;;;;;1.90;1.80;;;16.70;26.00;;;;;;5115008;28;20211;-64
2021/12/21 07:08:47;;;;;;;2.05;1.85;;;16.70;26.00;;;;;;5114245;28;20219;-63
2021/12/21 07:11:20;;;;;;;2.25;2.05;;;16.70;26.10;;;;;;5114989;28;20225;-63
2021/12/21 07:19:19;;;;;;;2.15;1.92;;;16.70;26.00;;;;;;5113709;28;20503;-62
2021/12/21 07:21:46;;;;;;;2.28;1.77;;;16.70;26.00;;;;;;5113884;28;20237;-62
2021/12/21 07:24:13;;;;;;;2.30;2.10;;;16.60;26.00;;;;;;5114248;28;20203;-63
2021/12/21 07:26:40;;;;;;;2.10;1.88;;;16.60;26.00;;;;;;5114180;28;20218;-62
2021/12/21 07:29:07;;;;;;;2.10;1.90;;;16.60;26.00;;;;;;5106670;27;20239;-64
2021/12/21 07:31:34;;;;;;;2.28;2.08;;;16.60;26.00;;;;;;5128099;27;20229;-62
2021/12/21 07:34:02;;;;;;;2.33;2.13;;;16.60;26.00;;;;;;5114903;28;20199;-62
2021/12/21 07:36:32;;;;;;;1.70;1.60;;;16.60;26.00;;;;;;5114264;28;20216;-63
2021/12/21 07:38:59;;;;;;;2.92;2.13;;;16.60;26.00;;;;;;5113517;28;20547;-63
2021/12/21 07:41:26;;;;;;;1.98;1.88;;;16.60;26.00;;;;;;5114299;28;20207;-62
2021/12/21 07:43:54;;;;;;;1.70;1.60;;;16.50;25.90;;;;;;5113443;28;20213;-62
2021/12/21 07:46:21;;;;;;;2.08;1.85;;;16.50;26.00;;;;;;5113351;28;20214;-63
2021/12/21 07:48:48;;;;;;;1.80;1.70;;;16.50;26.00;;;;;;5113659;28;20227;-63
2021/12/21 07:51:16;;;;;;;2.00;1.80;;;16.50;26.00;;;;;;5114024;28;20222;-63
2021/12/21 07:53:45;;;;;;;2.03;1.90;;;16.50;26.00;;;;;;5113792;28;20195;-63
2021/12/21 07:56:13;;;;;;;2.28;1.98;;;16.50;26.10;;;;;;5113589;28;20238;-63
2021/12/21 07:58:41;;;;;;;2.22;2.03;;;16.50;26.10;;;;;;5113943;28;20211;-63
2021/12/21 08:01:08;;;;;;;1.88;1.73;;;16.50;26.00;;;;;;5114133;28;20211;-62
2021/12/21 08:03:36;;;;;;;1.88;1.77;;;16.50;26.00;;;;;;5114229;28;20215;-62
2021/12/21 08:06:07;;;;;;;2.03;1.83;;;16.50;26.00;;;;;;5113982;28;20203;-64
2021/12/21 08:08:36;;;;;;;2.10;1.90;;;16.50;26.00;;;;;;5114257;28;20223;-63
2021/12/21 08:11:15;;;;;;;1.70;1.60;;;16.50;26.10;;;;;;5114133;28;20284;-63
2021/12/21 08:13:44;;;;;;;4.35;2.10;;;16.50;26.10;;;;;;5111205;28;20482;-63
2021/12/21 08:16:12;;;;;;;2.95;2.10;;;16.50;26.30;;;;;;5108964;28;20234;-63
2021/12/21 08:18:39;;;;;;;3.13;2.10;;;16.50;26.20;;;;;;5103214;28;20491;-64
2021/12/21 08:21:07;;;;;;;4.28;2.10;;;16.40;26.10;;;;;;5094166;28;20602;-63
2021/12/21 08:23:34;;;;;;;2.58;2.00;;;16.40;26.10;;;;;;5093689;28;20218;-63
2021/12/21 08:26:02;;;;;;;10.95;6.97;;;16.40;26.10;;;;;;5093032;28;20206;-63
2021/12/21 08:28:30;;;;;;;9.30;6.90;;;16.40;26.10;;;;;;5084645;28;20204;-63
2021/12/21 08:30:57;;;;;;;8.13;5.47;;;16.40;26.10;;;;;;5095361;28;20207;-63
2021/12/21 08:33:24;;;;;;;9.65;5.85;;;16.40;26.10;;;;;;5098223;28;20211;-63
2021/12/21 08:35:51;;;;;;;8.15;5.50;;;16.40;26.10;;;;;;5117603;28;20272;-63
2021/12/21 08:38:19;;;;;;;7.93;5.60;;;16.40;26.10;;;;;;5118082;28;20203;-63
2021/12/21 08:40:49;;;;;;;8.13;5.45;;;16.40;26.10;;;;;;5117040;28;20203;-64
2021/12/21 08:43:20;;;;;;;7.97;5.13;;;16.40;26.10;;;;;;5117425;28;20207;-63
2021/12/21 08:45:51;;;;;;;6.85;5.03;;;16.30;26.10;;;;;;5117205;28;20267;-63
2021/12/21 08:48:19;;;;;;;7.30;5.15;;;16.30;26.10;;;;;;5116983;28;20221;-63
2021/12/21 08:50:49;;;;;;;6.68;5.22;;;16.30;26.10;;;;;;5117110;28;20218;-63
2021/12/21 08:53:17;;;;;;;11.95;10.48;;;16.30;26.10;;;;;;5117137;28;20210;-63
2021/12/21 08:55:44;;;;;;;12.65;9.40;;;16.30;26.20;;;;;;5115903;27;20234;-62
2021/12/21 08:58:13;;;;;;;11.32;8.27;;;16.30;26.30;;;;;;5123226;27;20211;-62
2021/12/21 09:00:41;;;;;;;9.80;8.10;;;16.40;26.50;;;;;;5116257;28;20218;-62
2021/12/21 09:03:11;;;;;;;8.50;7.57;;;16.40;26.70;;;;;;5096217;28;20288;-63
2021/12/21 09:05:40;;;;;;;7.65;6.90;;;16.40;26.90;;;;;;5096533;28;20231;-62
2021/12/21 09:08:08;;;;;;;10.68;6.47;;;16.50;26.80;;;;;;5096109;28;20207;-62
2021/12/21 09:10:36;;;;;;;7.93;6.20;;;16.50;26.70;;;;;;5096608;28;20220;-62
2021/12/21 09:13:04;;;;;;;7.47;6.22;;;16.50;26.70;;;;;;5095637;28;20199;-62
2021/12/21 09:15:31;;;;;;;7.60;6.60;;;16.50;26.70;;;;;;5096268;28;20286;-62
2021/12/21 09:17:59;;;;;;;7.68;5.80;;;16.50;26.70;;;;;;5096465;28;20218;-62
2021/12/21 09:20:31;;;;;;;6.15;5.50;;;16.50;26.70;;;;;;5096175;28;20215;-63
2021/12/21 09:22:59;;;;;;;6.45;5.60;;;16.50;26.70;;;;;;5094907;28;20210;-63
2021/12/21 09:25:27;;;;;;;6.95;5.00;;;16.50;26.70;;;;;;5113214;28;20204;-63
2021/12/21 09:27:55;;;;;;;7.60;5.25;;;16.50;26.80;;;;;;5116418;28;20210;-63
2021/12/21 09:30:24;;;;;;;5.57;5.05;;;16.60;26.80;;;;;;5115587;28;20296;-63
2021/12/21 09:32:52;;;;;;;6.07;4.82;;;16.50;26.80;;;;;;5116346;28;20582;-63
2021/12/21 09:35:20;;;;;;;6.18;4.85;;;16.60;27.50;;;;;;5115877;28;20268;-63
2021/12/21 09:37:49;;;;;;;5.50;4.30;;;16.60;26.90;;;;;;5116028;28;20846;-63
2021/12/21 09:40:19;;;;;;;6.30;4.18;;;16.60;26.90;;;;;;5115837;28;20199;-63
2021/12/21 09:42:47;;;;;;;6.57;4.20;;;16.60;26.80;;;;;;5115325;28;20225;-63
2021/12/21 09:45:16;;;;;;;5.13;4.35;;;16.60;26.80;;;;;;5116145;28;20202;-63
2021/12/21 09:47:43;;;;;;;4.82;4.10;;;16.70;26.90;;;;;;5115768;28;20203;-62
2021/12/21 09:50:13;;;;;;;3.92;3.63;;;16.70;26.90;;;;;;5115508;28;20235;-62
2021/12/21 09:52:40;;;;;;;4.78;3.80;;;16.70;26.90;;;;;;5115094;28;20585;-62
2021/12/21 09:55:13;;;;;;;5.75;4.00;;;16.70;26.80;;;;;;5114642;28;20214;-62
2021/12/21 09:57:41;;;;;;;4.93;3.53;;;16.70;26.80;;;;;;5115335;28;20595;-62
2021/12/21 10:00:11;;;;;;;4.45;3.53;;;16.70;26.80;;;;;;5115468;28;20586;-62
2021/12/21 10:02:40;;;;;;;4.07;3.63;;;16.70;26.80;;;;;;5115906;28;20222;-62
2021/12/21 10:05:10;;;;;;;3.60;3.28;;;16.80;26.80;;;;;;5115666;28;20215;-62
2021/12/21 10:07:37;;;;;;;3.60;3.28;;;16.80;26.80;;;;;;5115675;28;20332;-62
2021/12/21 10:10:10;;;;;;;4.00;3.50;;;16.80;26.80;;;;;;5114803;28;20226;-62
2021/12/21 10:12:39;;;;;;;3.97;3.17;;;16.80;26.80;;;;;;5115322;28;20214;-62
2021/12/21 10:15:10;;;;;;;3.78;3.35;;;16.80;26.80;;;;;;5115334;28;20267;-62
2021/12/21 10:17:38;;;;;;;5.65;3.10;;;16.80;26.80;;;;;;5115173;28;20222;-62
2021/12/21 10:20:07;;;;;;;4.10;3.25;;;16.80;26.80;;;;;;5115808;28;20323;-62
2021/12/21 10:22:35;;;;;;;6.45;3.35;;;16.80;26.80;;;;;;5114074;28;20202;-63
2021/12/21 10:25:04;;;;;;;4.90;3.30;;;16.80;26.80;;;;;;5112318;28;20753;-62
2021/12/21 10:27:32;;;;;;;7.80;3.83;;;16.80;26.80;;;;;;5115373;28;20206;-62
2021/12/21 10:30:01;;;;;;;10.65;6.72;;;16.80;26.80;;;;;;5115921;28;20219;-63
2021/12/21 10:32:30;;;;;;;16.88;10.00;;;16.80;26.80;;;;;;5115582;28;20198;-63
2021/12/21 10:35:00;;;;;;;19.75;9.90;;;16.80;26.70;;;;;;5115530;28;20203;-63
2021/12/21 10:37:30;;;;;;;18.88;9.48;;;16.80;26.70;;;;;;5115135;28;20199;-63
2021/12/21 10:40:10;;;;;;;22.02;9.35;;;16.80;26.70;;;;;;5114847;28;20206;-63
2021/12/21 10:42:56;;;;;;;16.83;8.82;;;16.80;26.70;;;;;;5118769;27;20238;-63
2021/12/21 10:45:30;;;;;;;17.88;8.65;;;16.80;26.70;;;;;;5114555;28;20229;-63
2021/12/21 10:47:58;;;;;;;14.68;8.05;;;16.80;26.70;;;;;;5113767;28;20214;-63
2021/12/21 10:50:28;;;;;;;13.50;8.10;;;16.80;26.70;;;;;;5113409;28;20219;-63
2021/12/21 10:52:58;;;;;;;13.05;7.70;;;16.80;26.70;;;;;;5113575;28;20214;-63
2021/12/21 10:55:27;;;;;;;16.45;8.27;;;16.80;26.70;;;;;;5113765;28;20211;-63
2021/12/21 10:58:04;;;;;;;17.55;7.53;;;16.80;26.70;;;;;;5113915;28;20279;-63
2021/12/21 11:00:32;;;;;;;13.57;7.32;;;16.80;26.70;;;;;;5114020;28;20202;-63
2021/12/21 11:02:59;;;;;;;13.15;7.28;;;16.80;26.80;;;;;;5113395;28;20207;-62
2021/12/21 11:05:27;;;;;;;15.27;7.78;;;16.90;26.80;;;;;;5112432;28;20221;-63
2021/12/21 11:07:58;;;;;;;13.05;7.15;;;16.90;26.90;;;;;;5114398;28;20215;-63
2021/12/21 11:10:30;;;;;;;14.70;7.38;;;16.90;26.80;;;;;;5114190;28;20674;-63
2021/12/21 11:13:00;;;;;;;12.55;7.65;;;16.90;26.80;;;;;;5113828;28;20256;-63
2021/12/21 11:15:30;;;;;;;12.73;7.07;;;16.90;26.80;;;;;;5114015;28;20202;-63
2021/12/21 11:17:58;;;;;;;12.40;6.57;;;16.90;26.70;;;;;;5113156;28;20195;-63
2021/12/21 11:20:25;;;;;;;12.43;7.07;;;17.00;26.80;;;;;;5112655;28;20191;-63
2021/12/21 11:22:53;;;;;;;11.25;6.25;;;16.90;26.70;;;;;;5113224;28;20215;-63
2021/12/21 11:25:21;;;;;;;13.98;6.22;;;16.90;26.50;;;;;;5113617;28;20209;-63
2021/12/21 11:27:50;;;;;;;9.25;5.57;;;16.90;26.50;;;;;;5113880;28;20230;-63
2021/12/21 11:30:19;;;;;;;11.82;6.45;;;16.90;26.40;;;;;;5113245;28;20237;-63
2021/12/21 11:32:50;;;;;;;10.15;5.90;;;16.90;26.30;;;;;;5112859;28;20221;-63
2021/12/21 11:38:06;;;;;;;11.15;6.88;;;16.90;26.40;;;;;;5113504;28;20593;-63
2021/12/21 11:40:36;;;;;;;11.55;6.85;;;16.90;26.40;;;;;;5113582;28;20206;-63
2021/12/21 11:43:22;;;;;;;10.88;6.50;;;17.00;26.40;;;;;;5113659;28;20617;-62
2021/12/21 11:45:54;;;;;;;11.18;6.13;;;17.00;26.40;;;;;;5113271;28;20210;-63
2021/12/21 11:48:32;;;;;;;10.63;6.70;;;16.90;26.30;;;;;;5114046;28;20214;-63
2021/12/21 11:51:04;;;;;;;10.30;6.28;;;16.90;26.40;;;;;;5112833;28;20237;-63
2021/12/21 11:53:31;;;;;;;15.50;6.25;;;16.90;26.40;;;;;;5112179;28;20210;-64
2021/12/21 11:55:59;;;;;;;10.18;6.00;;;17.00;26.50;;;;;;5111874;28;20264;-63
2021/12/21 11:58:28;;;;;;;8.75;5.30;;;16.90;26.40;;;;;;5112618;28;20250;-63
2021/12/21 12:00:57;;;;;;;12.10;5.60;;;16.90;26.40;;;;;;5112341;28;20195;-63
2021/12/21 12:03:29;;;;;;;9.65;5.13;;;16.90;26.40;;;;;;5112332;28;20211;-63
2021/12/21 12:05:58;;;;;;;8.90;5.28;;;17.00;26.50;;;;;;5115428;28;20211;-63
2021/12/21 12:08:28;;;;;;;10.52;5.55;;;16.90;26.40;;;;;;5116682;28;20195;-63
2021/12/21 12:10:58;;;;;;;10.60;5.35;;;17.00;26.40;;;;;;5116748;28;20237;-64
2021/12/21 12:13:34;;;;;;;8.27;5.03;;;17.00;26.50;;;;;;5115932;28;20213;-62
2021/12/21 12:16:06;;;;;;;8.40;4.93;;;17.00;26.40;;;;;;5116435;28;20217;-62
2021/12/21 12:18:38;;;;;;;10.68;4.80;;;16.90;26.40;;;;;;5115346;28;20195;-62
2021/12/21 12:21:13;;;;;;;8.43;5.43;;;16.90;26.30;;;;;;5116675;28;20199;-62
2021/12/21 12:23:50;;;;;;;11.98;6.30;;;16.90;26.30;;;;;;5116291;28;20217;-62
2021/12/21 12:26:28;;;;;;;9.85;5.45;;;16.90;26.40;;;;;;5116887;28;20214;-62
2021/12/21 12:28:57;;;;;;;10.25;6.00;;;16.90;26.40;;;;;;5116804;28;20225;-64
2021/12/21 12:31:29;;;;;;;8.77;5.30;;;16.90;26.40;;;;;;5115681;28;20226;-63
2021/12/21 12:33:57;;;;;;;9.35;5.30;;;16.90;26.40;;;;;;5116673;28;20206;-63
2021/12/21 12:36:38;;;;;;;12.40;5.43;;;16.90;26.40;;;;;;5116628;28;20214;-63
2021/12/21 12:39:08;;;;;;;8.38;4.82;;;16.90;26.50;;;;;;5116149;28;20298;-63
2021/12/21 12:41:45;;;;;;;8.80;4.93;;;17.00;26.50;;;;;;5115489;28;20203;-63
2021/12/21 12:44:21;;;;;;;9.68;4.90;;;17.00;26.60;;;;;;5116812;28;20271;-63
2021/12/21 12:46:54;;;;;;;7.07;4.32;;;17.00;26.50;;;;;;5096814;28;20207;-63
2021/12/21 12:49:27;;;;;;;7.55;4.60;;;17.00;26.50;;;;;;5110113;27;20298;-62
2021/12/21 12:52:08;;;;;;;8.00;4.22;;;17.00;26.50;;;;;;5126484;27;20242;-62
2021/12/21 12:54:51;;;;;;;7.88;4.43;;;17.00;26.50;;;;;;5116327;28;20213;-62
2021/12/21 12:57:27;;;;;;;8.77;4.03;;;17.00;26.50;;;;;;5116257;28;20226;-62
2021/12/21 12:59:55;;;;;;;7.30;4.22;;;17.00;26.50;;;;;;5116169;28;20202;-63
2021/12/21 13:02:23;;;;;;;5.90;3.53;;;17.00;26.50;;;;;;5116296;28;20210;-63
2021/12/21 13:04:52;;;;;;;8.38;3.75;;;17.00;26.50;;;;;;5116690;28;20264;-63
2021/12/21 13:07:27;;;;;;;8.45;4.13;;;17.00;26.40;;;;;;5115728;28;20751;-63
2021/12/21 13:10:09;;;;;;;5.35;3.40;;;17.00;26.50;;;;;;5116025;28;20210;-63
2021/12/21 13:12:38;;;;;;;6.53;3.22;;;17.10;26.50;;;;;;5116401;28;20527;-62
2021/12/21 13:15:07;;;;;;;7.80;5.15;;;17.00;26.30;;;;;;5115577;28;20203;-62
2021/12/21 13:17:35;;;;;;;12.20;10.52;;;17.00;26.30;;;;;;5114711;28;20221;-62
2021/12/21 13:20:05;;;;;;;9.90;8.23;;;17.00;26.40;;;;;;5115892;28;20207;-63
2021/12/21 13:22:32;;;;;;;9.13;7.75;;;17.10;26.40;;;;;;5115482;28;20210;-62
2021/12/21 13:24:59;;;;;;;8.73;7.40;;;17.10;26.40;;;;;;5115552;28;20202;-62
2021/12/21 13:27:27;;;;;;;9.25;7.68;;;17.00;26.40;;;;;;5115506;28;20228;-63
2021/12/21 13:29:54;;;;;;;8.20;7.30;;;17.00;26.20;;;;;;5116177;28;20195;-63
2021/12/21 13:32:23;;;;;;;7.72;7.03;;;17.00;26.30;;;;;;5115875;28;20210;-62
2021/12/21 13:34:56;;;;;;;8.27;7.38;;;17.00;26.20;;;;;;5114565;28;20211;-64